Terminal Aerodrome Forecast
Issued by NWS

Home | Current Version | Previous Version | Text Only | Print | Product List | Glossary On
Versions: 1 2 3 4 5 6 7 8 9 10 11 12 13 14 15 16 17
000
FTUS46 KSEW 172017 AAB
TAFCLM
TAF AMD
KCLM 172017Z 1720/1818 30020G30KT P6SM VCSH BKN040
      TEMPO 1720/1724 2SM SHRA BR BKN025
     FM180600 28012KT P6SM VCSH BKN030
     FM181200 04012G22KT 3SM -SHSN OVC015
      TEMPO 1812/1816 1/2SM SN VV005=

USA.gov is the U.S. government's official web portal to all federal, state and local government web resources and services.